sensor_id;sensor_type;location;lat;lon;timestamp;P1;durP1;ratioP1;P2;durP2;ratioP2
26407;SDS011;14583;43.604;1.364;2023-07-29T00:00:52;9.48;;;5.57;;
26407;SDS011;14583;43.604;1.364;2023-07-29T00:03:18;11.60;;;6.57;;
26407;SDS011;14583;43.604;1.364;2023-07-29T00:05:43;9.23;;;5.97;;
26407;SDS011;14583;43.604;1.364;2023-07-29T00:08:09;6.68;;;5.47;;
26407;SDS011;14583;43.604;1.364;2023-07-29T00:10:38;8.55;;;5.30;;
26407;SDS011;14583;43.604;1.364;2023-07-29T00:13:04;8.32;;;5.90;;
26407;SDS011;14583;43.604;1.364;2023-07-29T00:15:30;7.80;;;5.82;;
26407;SDS011;14583;43.604;1.364;2023-07-29T00:17:56;8.27;;;5.97;;
26407;SDS011;14583;43.604;1.364;2023-07-29T00:20:22;8.80;;;5.85;;
26407;SDS011;14583;43.604;1.364;2023-07-29T00:22:48;10.75;;;6.03;;
26407;SDS011;14583;43.604;1.364;2023-07-29T00:25:15;7.18;;;5.50;;
26407;SDS011;14583;43.604;1.364;2023-07-29T00:27:41;8.75;;;5.60;;
26407;SDS011;14583;43.604;1.364;2023-07-29T00:30:07;6.10;;;5.40;;
26407;SDS011;14583;43.604;1.364;2023-07-29T00:32:34;7.57;;;5.50;;
26407;SDS011;14583;43.604;1.364;2023-07-29T00:35:00;9.63;;;5.90;;
26407;SDS011;14583;43.604;1.364;2023-07-29T00:37:27;6.93;;;5.72;;
26407;SDS011;14583;43.604;1.364;2023-07-29T00:39:53;11.88;;;5.85;;
26407;SDS011;14583;43.604;1.364;2023-07-29T00:42:19;9.88;;;5.93;;
26407;SDS011;14583;43.604;1.364;2023-07-29T00:44:45;9.70;;;6.20;;
26407;SDS011;14583;43.604;1.364;2023-07-29T00:47:11;6.43;;;5.72;;
26407;SDS011;14583;43.604;1.364;2023-07-29T00:49:39;11.07;;;5.47;;
26407;SDS011;14583;43.604;1.364;2023-07-29T00:52:04;7.65;;;5.30;;
26407;SDS011;14583;43.604;1.364;2023-07-29T00:54:30;6.05;;;5.03;;
26407;SDS011;14583;43.604;1.364;2023-07-29T00:56:56;8.60;;;5.47;;
26407;SDS011;14583;43.604;1.364;2023-07-29T00:59:22;9.50;;;5.95;;
26407;SDS011;14583;43.604;1.364;2023-07-29T01:01:48;6.00;;;4.72;;
26407;SDS011;14583;43.604;1.364;2023-07-29T01:04:14;8.50;;;5.10;;
26407;SDS011;14583;43.604;1.364;2023-07-29T01:09:33;7.38;;;5.53;;
26407;SDS011;14583;43.604;1.364;2023-07-29T01:12:20;7.47;;;5.28;;
26407;SDS011;14583;43.604;1.364;2023-07-29T01:17:27;8.10;;;5.35;;
26407;SDS011;14583;43.604;1.364;2023-07-29T01:20:15;5.50;;;4.93;;
26407;SDS011;14583;43.604;1.364;2023-07-29T01:22:42;7.25;;;5.60;;
26407;SDS011;14583;43.604;1.364;2023-07-29T01:25:08;8.27;;;5.45;;
26407;SDS011;14583;43.604;1.364;2023-07-29T01:27:33;6.72;;;5.35;;
26407;SDS011;14583;43.604;1.364;2023-07-29T01:29:59;6.10;;;5.13;;
26407;SDS011;14583;43.604;1.364;2023-07-29T01:35:43;6.47;;;5.75;;
26407;SDS011;14583;43.604;1.364;2023-07-29T01:38:07;8.55;;;5.50;;
26407;SDS011;14583;43.604;1.364;2023-07-29T01:40:39;5.95;;;4.68;;
26407;SDS011;14583;43.604;1.364;2023-07-29T01:43:06;6.85;;;5.15;;
26407;SDS011;14583;43.604;1.364;2023-07-29T01:45:34;7.82;;;5.35;;
26407;SDS011;14583;43.604;1.364;2023-07-29T01:48:06;7.60;;;5.55;;
26407;SDS011;14583;43.604;1.364;2023-07-29T01:50:33;10.07;;;5.57;;
26407;SDS011;14583;43.604;1.364;2023-07-29T01:53:01;6.70;;;5.60;;
26407;SDS011;14583;43.604;1.364;2023-07-29T01:55:27;7.55;;;5.15;;
26407;SDS011;14583;43.604;1.364;2023-07-29T01:57:53;6.82;;;5.28;;
26407;SDS011;14583;43.604;1.364;2023-07-29T02:00:19;6.82;;;5.20;;
26407;SDS011;14583;43.604;1.364;2023-07-29T02:02:45;6.75;;;5.28;;
26407;SDS011;14583;43.604;1.364;2023-07-29T02:05:11;5.95;;;5.03;;
26407;SDS011;14583;43.604;1.364;2023-07-29T02:07:37;10.32;;;5.30;;
26407;SDS011;14583;43.604;1.364;2023-07-29T02:10:03;7.20;;;5.18;;
26407;SDS011;14583;43.604;1.364;2023-07-29T02:12:29;7.95;;;5.68;;
26407;SDS011;14583;43.604;1.364;2023-07-29T02:14:54;10.20;;;5.35;;
26407;SDS011;14583;43.604;1.364;2023-07-29T02:17:20;6.90;;;5.65;;
26407;SDS011;14583;43.604;1.364;2023-07-29T02:19:46;8.98;;;5.30;;
26407;SDS011;14583;43.604;1.364;2023-07-29T02:22:17;13.40;;;5.70;;
26407;SDS011;14583;43.604;1.364;2023-07-29T02:24:43;10.85;;;5.75;;
26407;SDS011;14583;43.604;1.364;2023-07-29T02:27:09;9.57;;;5.78;;
26407;SDS011;14583;43.604;1.364;2023-07-29T02:29:35;7.03;;;5.57;;
26407;SDS011;14583;43.604;1.364;2023-07-29T02:32:01;6.95;;;5.43;;
26407;SDS011;14583;43.604;1.364;2023-07-29T02:34:27;8.25;;;5.20;;
26407;SDS011;14583;43.604;1.364;2023-07-29T02:36:53;9.43;;;5.47;;
26407;SDS011;14583;43.604;1.364;2023-07-29T02:39:18;5.93;;;5.15;;
26407;SDS011;14583;43.604;1.364;2023-07-29T02:41:44;7.88;;;5.68;;
26407;SDS011;14583;43.604;1.364;2023-07-29T02:44:10;8.77;;;5.32;;
26407;SDS011;14583;43.604;1.364;2023-07-29T02:46:35;7.85;;;5.70;;
26407;SDS011;14583;43.604;1.364;2023-07-29T02:49:02;9.15;;;5.38;;
26407;SDS011;14583;43.604;1.364;2023-07-29T02:51:29;7.88;;;5.50;;
26407;SDS011;14583;43.604;1.364;2023-07-29T02:53:55;12.07;;;5.72;;
26407;SDS011;14583;43.604;1.364;2023-07-29T02:56:20;6.50;;;5.32;;
26407;SDS011;14583;43.604;1.364;2023-07-29T02:58:46;7.82;;;5.80;;
26407;SDS011;14583;43.604;1.364;2023-07-29T03:01:12;8.50;;;5.82;;
26407;SDS011;14583;43.604;1.364;2023-07-29T03:03:39;7.57;;;6.30;;
26407;SDS011;14583;43.604;1.364;2023-07-29T03:06:05;9.73;;;5.50;;
26407;SDS011;14583;43.604;1.364;2023-07-29T03:08:32;7.65;;;5.32;;
26407;SDS011;14583;43.604;1.364;2023-07-29T03:10:58;7.45;;;5.57;;
26407;SDS011;14583;43.604;1.364;2023-07-29T03:13:29;8.18;;;5.88;;
26407;SDS011;14583;43.604;1.364;2023-07-29T03:16:03;9.48;;;5.68;;
26407;SDS011;14583;43.604;1.364;2023-07-29T03:18:33;6.45;;;5.85;;
26407;SDS011;14583;43.604;1.364;2023-07-29T03:20:59;12.18;;;5.68;;
26407;SDS011;14583;43.604;1.364;2023-07-29T03:23:25;8.93;;;5.38;;
26407;SDS011;14583;43.604;1.364;2023-07-29T03:25:51;7.40;;;5.60;;
26407;SDS011;14583;43.604;1.364;2023-07-29T03:28:21;6.85;;;5.40;;
26407;SDS011;14583;43.604;1.364;2023-07-29T03:30:57;9.50;;;5.70;;
26407;SDS011;14583;43.604;1.364;2023-07-29T03:33:24;8.07;;;5.72;;
26407;SDS011;14583;43.604;1.364;2023-07-29T03:35:51;9.80;;;5.85;;
26407;SDS011;14583;43.604;1.364;2023-07-29T03:38:17;7.00;;;5.60;;
26407;SDS011;14583;43.604;1.364;2023-07-29T03:40:43;8.13;;;5.65;;
26407;SDS011;14583;43.604;1.364;2023-07-29T03:43:09;8.27;;;5.60;;
26407;SDS011;14583;43.604;1.364;2023-07-29T03:45:35;8.60;;;5.45;;
26407;SDS011;14583;43.604;1.364;2023-07-29T03:48:01;7.80;;;5.82;;
26407;SDS011;14583;43.604;1.364;2023-07-29T03:50:28;11.40;;;5.93;;
26407;SDS011;14583;43.604;1.364;2023-07-29T03:52:55;11.00;;;6.13;;
26407;SDS011;14583;43.604;1.364;2023-07-29T03:55:21;9.15;;;5.72;;
26407;SDS011;14583;43.604;1.364;2023-07-29T03:57:47;8.40;;;5.72;;
26407;SDS011;14583;43.604;1.364;2023-07-29T04:00:13;11.73;;;5.90;;
26407;SDS011;14583;43.604;1.364;2023-07-29T04:02:39;11.35;;;7.35;;
26407;SDS011;14583;43.604;1.364;2023-07-29T04:05:05;6.75;;;5.95;;
26407;SDS011;14583;43.604;1.364;2023-07-29T04:07:33;7.90;;;5.90;;
26407;SDS011;14583;43.604;1.364;2023-07-29T04:10:00;10.05;;;6.20;;
26407;SDS011;14583;43.604;1.364;2023-07-29T04:12:26;7.60;;;6.18;;
26407;SDS011;14583;43.604;1.364;2023-07-29T04:14:52;8.05;;;5.43;;
26407;SDS011;14583;43.604;1.364;2023-07-29T04:17:18;6.78;;;5.88;;
26407;SDS011;14583;43.604;1.364;2023-07-29T04:19:44;7.88;;;5.97;;
26407;SDS011;14583;43.604;1.364;2023-07-29T04:22:09;7.32;;;5.53;;
26407;SDS011;14583;43.604;1.364;2023-07-29T04:24:35;8.60;;;6.30;;
26407;SDS011;14583;43.604;1.364;2023-07-29T04:27:01;10.23;;;5.95;;
26407;SDS011;14583;43.604;1.364;2023-07-29T04:29:26;6.65;;;5.22;;
26407;SDS011;14583;43.604;1.364;2023-07-29T04:31:52;8.60;;;5.63;;
26407;SDS011;14583;43.604;1.364;2023-07-29T04:34:18;9.00;;;5.65;;
26407;SDS011;14583;43.604;1.364;2023-07-29T04:36:45;10.05;;;5.88;;
26407;SDS011;14583;43.604;1.364;2023-07-29T04:39:11;6.78;;;5.90;;
26407;SDS011;14583;43.604;1.364;2023-07-29T04:41:36;9.68;;;6.03;;
26407;SDS011;14583;43.604;1.364;2023-07-29T04:44:02;9.65;;;5.68;;
26407;SDS011;14583;43.604;1.364;2023-07-29T04:46:28;7.88;;;5.90;;
26407;SDS011;14583;43.604;1.364;2023-07-29T04:48:54;7.40;;;4.93;;
26407;SDS011;14583;43.604;1.364;2023-07-29T04:51:19;10.93;;;5.30;;
26407;SDS011;14583;43.604;1.364;2023-07-29T04:53:45;10.98;;;5.90;;
26407;SDS011;14583;43.604;1.364;2023-07-29T04:56:11;10.00;;;5.75;;
26407;SDS011;14583;43.604;1.364;2023-07-29T04:58:37;7.85;;;5.47;;
26407;SDS011;14583;43.604;1.364;2023-07-29T05:01:03;6.78;;;5.43;;
26407;SDS011;14583;43.604;1.364;2023-07-29T05:03:29;6.53;;;5.00;;
26407;SDS011;14583;43.604;1.364;2023-07-29T05:05:54;9.10;;;4.78;;
26407;SDS011;14583;43.604;1.364;2023-07-29T05:08:21;8.68;;;5.40;;
26407;SDS011;14583;43.604;1.364;2023-07-29T05:10:50;14.15;;;5.95;;
26407;SDS011;14583;43.604;1.364;2023-07-29T05:13:17;7.03;;;5.20;;
26407;SDS011;14583;43.604;1.364;2023-07-29T05:15:43;10.38;;;5.28;;
26407;SDS011;14583;43.604;1.364;2023-07-29T05:18:09;12.77;;;5.60;;
26407;SDS011;14583;43.604;1.364;2023-07-29T05:20:34;10.55;;;5.85;;
26407;SDS011;14583;43.604;1.364;2023-07-29T05:23:00;6.55;;;5.15;;
26407;SDS011;14583;43.604;1.364;2023-07-29T05:25:26;6.35;;;5.00;;
26407;SDS011;14583;43.604;1.364;2023-07-29T05:27:52;11.27;;;6.18;;
26407;SDS011;14583;43.604;1.364;2023-07-29T05:30:18;6.00;;;5.40;;
26407;SDS011;14583;43.604;1.364;2023-07-29T05:32:44;9.60;;;5.15;;
26407;SDS011;14583;43.604;1.364;2023-07-29T05:35:10;16.00;;;6.05;;
26407;SDS011;14583;43.604;1.364;2023-07-29T05:37:38;13.05;;;5.40;;
26407;SDS011;14583;43.604;1.364;2023-07-29T05:40:07;7.97;;;5.53;;
26407;SDS011;14583;43.604;1.364;2023-07-29T05:42:34;8.73;;;5.38;;
26407;SDS011;14583;43.604;1.364;2023-07-29T05:45:00;11.30;;;5.15;;
26407;SDS011;14583;43.604;1.364;2023-07-29T05:47:26;8.75;;;5.32;;
26407;SDS011;14583;43.604;1.364;2023-07-29T05:49:52;9.55;;;5.60;;
26407;SDS011;14583;43.604;1.364;2023-07-29T05:52:18;8.90;;;5.75;;
26407;SDS011;14583;43.604;1.364;2023-07-29T05:54:44;11.38;;;5.47;;
26407;SDS011;14583;43.604;1.364;2023-07-29T05:57:10;10.05;;;5.63;;
26407;SDS011;14583;43.604;1.364;2023-07-29T05:59:36;9.07;;;5.55;;
26407;SDS011;14583;43.604;1.364;2023-07-29T06:02:02;9.15;;;5.75;;
26407;SDS011;14583;43.604;1.364;2023-07-29T06:04:28;8.65;;;5.60;;
26407;SDS011;14583;43.604;1.364;2023-07-29T06:06:54;8.13;;;5.32;;
26407;SDS011;14583;43.604;1.364;2023-07-29T06:09:21;8.50;;;5.40;;
26407;SDS011;14583;43.604;1.364;2023-07-29T06:11:47;8.27;;;5.18;;
26407;SDS011;14583;43.604;1.364;2023-07-29T06:14:13;12.50;;;5.22;;
26407;SDS011;14583;43.604;1.364;2023-07-29T06:16:38;8.10;;;5.32;;
26407;SDS011;14583;43.604;1.364;2023-07-29T06:19:04;8.82;;;5.10;;
26407;SDS011;14583;43.604;1.364;2023-07-29T06:21:30;13.00;;;6.10;;
26407;SDS011;14583;43.604;1.364;2023-07-29T06:23:56;6.22;;;5.32;;
26407;SDS011;14583;43.604;1.364;2023-07-29T06:26:21;10.55;;;5.43;;
26407;SDS011;14583;43.604;1.364;2023-07-29T06:28:47;7.05;;;5.00;;
26407;SDS011;14583;43.604;1.364;2023-07-29T06:31:13;11.55;;;5.43;;
26407;SDS011;14583;43.604;1.364;2023-07-29T06:33:39;12.45;;;5.38;;
26407;SDS011;14583;43.604;1.364;2023-07-29T06:36:05;13.23;;;5.20;;
26407;SDS011;14583;43.604;1.364;2023-07-29T06:38:31;11.82;;;5.22;;
26407;SDS011;14583;43.604;1.364;2023-07-29T06:40:57;7.30;;;5.13;;
26407;SDS011;14583;43.604;1.364;2023-07-29T06:43:22;10.77;;;5.43;;
26407;SDS011;14583;43.604;1.364;2023-07-29T06:45:48;11.90;;;4.95;;
26407;SDS011;14583;43.604;1.364;2023-07-29T06:48:14;5.93;;;4.80;;
26407;SDS011;14583;43.604;1.364;2023-07-29T06:50:40;8.15;;;5.15;;
26407;SDS011;14583;43.604;1.364;2023-07-29T06:53:06;7.97;;;4.93;;
26407;SDS011;14583;43.604;1.364;2023-07-29T06:55:31;6.63;;;4.93;;
26407;SDS011;14583;43.604;1.364;2023-07-29T06:57:57;8.88;;;5.30;;
26407;SDS011;14583;43.604;1.364;2023-07-29T07:00:23;9.32;;;5.53;;
26407;SDS011;14583;43.604;1.364;2023-07-29T07:02:49;8.40;;;5.22;;
26407;SDS011;14583;43.604;1.364;2023-07-29T07:05:14;7.93;;;5.80;;
26407;SDS011;14583;43.604;1.364;2023-07-29T07:07:40;8.10;;;5.70;;
26407;SDS011;14583;43.604;1.364;2023-07-29T07:10:06;8.02;;;5.30;;
26407;SDS011;14583;43.604;1.364;2023-07-29T07:12:32;6.82;;;5.15;;
26407;SDS011;14583;43.604;1.364;2023-07-29T07:14:57;7.30;;;5.28;;
26407;SDS011;14583;43.604;1.364;2023-07-29T07:17:23;7.47;;;5.47;;
26407;SDS011;14583;43.604;1.364;2023-07-29T07:19:49;8.18;;;5.45;;
26407;SDS011;14583;43.604;1.364;2023-07-29T07:22:15;8.48;;;5.30;;
26407;SDS011;14583;43.604;1.364;2023-07-29T07:24:41;10.18;;;5.53;;
26407;SDS011;14583;43.604;1.364;2023-07-29T07:27:07;12.30;;;5.90;;
26407;SDS011;14583;43.604;1.364;2023-07-29T07:29:33;9.93;;;5.45;;
26407;SDS011;14583;43.604;1.364;2023-07-29T07:31:58;7.30;;;4.93;;
26407;SDS011;14583;43.604;1.364;2023-07-29T07:34:24;8.55;;;5.50;;
26407;SDS011;14583;43.604;1.364;2023-07-29T07:36:50;8.43;;;5.00;;
26407;SDS011;14583;43.604;1.364;2023-07-29T07:39:16;9.35;;;5.50;;
26407;SDS011;14583;43.604;1.364;2023-07-29T07:41:42;11.32;;;5.85;;
26407;SDS011;14583;43.604;1.364;2023-07-29T07:44:08;6.43;;;5.20;;
26407;SDS011;14583;43.604;1.364;2023-07-29T07:46:34;9.88;;;5.13;;
26407;SDS011;14583;43.604;1.364;2023-07-29T07:48:59;8.40;;;5.28;;
26407;SDS011;14583;43.604;1.364;2023-07-29T07:51:25;7.10;;;5.45;;
26407;SDS011;14583;43.604;1.364;2023-07-29T07:53:51;6.28;;;5.28;;
26407;SDS011;14583;43.604;1.364;2023-07-29T07:56:16;8.48;;;5.10;;
26407;SDS011;14583;43.604;1.364;2023-07-29T07:58:42;6.05;;;4.85;;
26407;SDS011;14583;43.604;1.364;2023-07-29T08:01:08;9.30;;;5.97;;
26407;SDS011;14583;43.604;1.364;2023-07-29T08:03:34;12.65;;;5.60;;
26407;SDS011;14583;43.604;1.364;2023-07-29T08:06:00;7.50;;;6.03;;
26407;SDS011;14583;43.604;1.364;2023-07-29T08:08:27;9.63;;;5.75;;
26407;SDS011;14583;43.604;1.364;2023-07-29T08:10:53;9.23;;;5.05;;
26407;SDS011;14583;43.604;1.364;2023-07-29T08:13:19;11.60;;;5.75;;
26407;SDS011;14583;43.604;1.364;2023-07-29T08:15:49;7.05;;;4.80;;
26407;SDS011;14583;43.604;1.364;2023-07-29T08:18:16;8.77;;;4.68;;
26407;SDS011;14583;43.604;1.364;2023-07-29T08:20:51;9.10;;;5.15;;
26407;SDS011;14583;43.604;1.364;2023-07-29T08:23:18;10.57;;;5.03;;
26407;SDS011;14583;43.604;1.364;2023-07-29T08:25:44;6.05;;;5.10;;
26407;SDS011;14583;43.604;1.364;2023-07-29T08:28:09;8.80;;;4.78;;
26407;SDS011;14583;43.604;1.364;2023-07-29T08:30:36;5.95;;;4.72;;
26407;SDS011;14583;43.604;1.364;2023-07-29T08:33:01;10.80;;;5.00;;
26407;SDS011;14583;43.604;1.364;2023-07-29T08:35:27;9.48;;;5.20;;
26407;SDS011;14583;43.604;1.364;2023-07-29T08:37:53;7.38;;;5.15;;
26407;SDS011;14583;43.604;1.364;2023-07-29T08:40:19;6.28;;;4.72;;
26407;SDS011;14583;43.604;1.364;2023-07-29T08:42:52;7.45;;;4.65;;
26407;SDS011;14583;43.604;1.364;2023-07-29T08:45:19;5.60;;;4.45;;
26407;SDS011;14583;43.604;1.364;2023-07-29T08:47:45;7.45;;;4.85;;
26407;SDS011;14583;43.604;1.364;2023-07-29T08:50:12;5.63;;;4.72;;
26407;SDS011;14583;43.604;1.364;2023-07-29T08:52:39;7.03;;;4.90;;
26407;SDS011;14583;43.604;1.364;2023-07-29T08:55:07;5.20;;;4.70;;
26407;SDS011;14583;43.604;1.364;2023-07-29T08:57:33;5.85;;;4.28;;
26407;SDS011;14583;43.604;1.364;2023-07-29T09:00:00;7.38;;;5.18;;
26407;SDS011;14583;43.604;1.364;2023-07-29T09:02:27;6.72;;;4.60;;
26407;SDS011;14583;43.604;1.364;2023-07-29T09:04:53;7.53;;;4.55;;
26407;SDS011;14583;43.604;1.364;2023-07-29T09:07:19;6.65;;;4.75;;
26407;SDS011;14583;43.604;1.364;2023-07-29T09:09:45;6.47;;;4.45;;
26407;SDS011;14583;43.604;1.364;2023-07-29T09:12:11;9.38;;;5.35;;
26407;SDS011;14583;43.604;1.364;2023-07-29T09:14:37;7.15;;;4.82;;
26407;SDS011;14583;43.604;1.364;2023-07-29T09:17:06;6.15;;;4.22;;
26407;SDS011;14583;43.604;1.364;2023-07-29T09:19:33;6.50;;;4.70;;
26407;SDS011;14583;43.604;1.364;2023-07-29T09:21:59;7.57;;;5.05;;
26407;SDS011;14583;43.604;1.364;2023-07-29T09:24:25;7.82;;;4.85;;
26407;SDS011;14583;43.604;1.364;2023-07-29T09:26:54;6.32;;;4.50;;
26407;SDS011;14583;43.604;1.364;2023-07-29T09:29:24;8.20;;;4.75;;
26407;SDS011;14583;43.604;1.364;2023-07-29T09:31:53;8.30;;;5.03;;
26407;SDS011;14583;43.604;1.364;2023-07-29T09:34:19;6.20;;;5.13;;
26407;SDS011;14583;43.604;1.364;2023-07-29T09:36:46;5.63;;;4.35;;
26407;SDS011;14583;43.604;1.364;2023-07-29T09:39:18;7.65;;;4.97;;
26407;SDS011;14583;43.604;1.364;2023-07-29T09:41:47;5.68;;;4.95;;
26407;SDS011;14583;43.604;1.364;2023-07-29T09:44:13;7.50;;;5.03;;
26407;SDS011;14583;43.604;1.364;2023-07-29T09:46:39;6.07;;;4.80;;
26407;SDS011;14583;43.604;1.364;2023-07-29T09:49:05;10.52;;;5.47;;
26407;SDS011;14583;43.604;1.364;2023-07-29T09:51:36;5.97;;;5.18;;
26407;SDS011;14583;43.604;1.364;2023-07-29T09:54:05;7.10;;;4.78;;
26407;SDS011;14583;43.604;1.364;2023-07-29T09:56:31;5.10;;;4.57;;
26407;SDS011;14583;43.604;1.364;2023-07-29T09:58:57;4.78;;;4.38;;
26407;SDS011;14583;43.604;1.364;2023-07-29T10:01:26;5.68;;;5.07;;
26407;SDS011;14583;43.604;1.364;2023-07-29T10:03:52;5.35;;;4.32;;
26407;SDS011;14583;43.604;1.364;2023-07-29T10:06:22;5.72;;;4.90;;
26407;SDS011;14583;43.604;1.364;2023-07-29T10:08:48;6.18;;;4.72;;
26407;SDS011;14583;43.604;1.364;2023-07-29T10:11:15;5.90;;;4.40;;
26407;SDS011;14583;43.604;1.364;2023-07-29T10:13:41;6.15;;;4.30;;
26407;SDS011;14583;43.604;1.364;2023-07-29T10:16:07;9.77;;;5.32;;
26407;SDS011;14583;43.604;1.364;2023-07-29T10:18:33;5.18;;;4.53;;
26407;SDS011;14583;43.604;1.364;2023-07-29T10:21:00;5.65;;;4.70;;
26407;SDS011;14583;43.604;1.364;2023-07-29T10:23:26;5.13;;;4.57;;
26407;SDS011;14583;43.604;1.364;2023-07-29T10:26:02;5.05;;;4.28;;
26407;SDS011;14583;43.604;1.364;2023-07-29T10:28:30;5.68;;;4.30;;
26407;SDS011;14583;43.604;1.364;2023-07-29T10:30:58;6.03;;;4.50;;
26407;SDS011;14583;43.604;1.364;2023-07-29T10:33:24;7.13;;;4.03;;
26407;SDS011;14583;43.604;1.364;2023-07-29T10:35:51;6.25;;;4.43;;
26407;SDS011;14583;43.604;1.364;2023-07-29T10:38:19;7.00;;;4.53;;
26407;SDS011;14583;43.604;1.364;2023-07-29T10:40:49;8.18;;;4.47;;
26407;SDS011;14583;43.604;1.364;2023-07-29T10:43:27;7.35;;;4.60;;
26407;SDS011;14583;43.604;1.364;2023-07-29T10:48:54;6.68;;;4.47;;
26407;SDS011;14583;43.604;1.364;2023-07-29T10:51:22;5.80;;;4.40;;
26407;SDS011;14583;43.604;1.364;2023-07-29T10:53:54;5.18;;;4.20;;
26407;SDS011;14583;43.604;1.364;2023-07-29T10:56:25;5.38;;;4.63;;
26407;SDS011;14583;43.604;1.364;2023-07-29T10:58:56;7.65;;;4.88;;
26407;SDS011;14583;43.604;1.364;2023-07-29T11:01:31;5.63;;;4.75;;
26407;SDS011;14583;43.604;1.364;2023-07-29T11:09:41;5.40;;;4.32;;
26407;SDS011;14583;43.604;1.364;2023-07-29T11:17:54;6.68;;;4.53;;
26407;SDS011;14583;43.604;1.364;2023-07-29T11:20:33;5.35;;;4.30;;
26407;SDS011;14583;43.604;1.364;2023-07-29T11:22:59;6.05;;;4.97;;
26407;SDS011;14583;43.604;1.364;2023-07-29T11:25:27;7.60;;;4.82;;
26407;SDS011;14583;43.604;1.364;2023-07-29T11:27:55;5.65;;;5.07;;
26407;SDS011;14583;43.604;1.364;2023-07-29T11:30:22;7.70;;;4.40;;
26407;SDS011;14583;43.604;1.364;2023-07-29T11:32:51;8.90;;;5.25;;
26407;SDS011;14583;43.604;1.364;2023-07-29T11:35:19;8.50;;;5.60;;
26407;SDS011;14583;43.604;1.364;2023-07-29T11:37:46;7.97;;;6.07;;
26407;SDS011;14583;43.604;1.364;2023-07-29T11:40:17;8.55;;;4.68;;
26407;SDS011;14583;43.604;1.364;2023-07-29T11:42:47;13.20;;;4.47;;
26407;SDS011;14583;43.604;1.364;2023-07-29T11:45:15;5.43;;;4.65;;
26407;SDS011;14583;43.604;1.364;2023-07-29T11:47:42;5.75;;;4.57;;
26407;SDS011;14583;43.604;1.364;2023-07-29T11:50:08;5.28;;;4.78;;
26407;SDS011;14583;43.604;1.364;2023-07-29T11:52:36;8.30;;;4.80;;
26407;SDS011;14583;43.604;1.364;2023-07-29T11:55:03;6.15;;;4.32;;
26407;SDS011;14583;43.604;1.364;2023-07-29T11:57:29;6.15;;;4.88;;
26407;SDS011;14583;43.604;1.364;2023-07-29T11:59:56;7.78;;;4.45;;
26407;SDS011;14583;43.604;1.364;2023-07-29T12:02:23;6.03;;;4.43;;
26407;SDS011;14583;43.604;1.364;2023-07-29T12:04:50;6.85;;;4.70;;
26407;SDS011;14583;43.604;1.364;2023-07-29T12:07:17;6.78;;;4.18;;
26407;SDS011;14583;43.604;1.364;2023-07-29T12:09:43;7.93;;;4.80;;
26407;SDS011;14583;43.604;1.364;2023-07-29T12:12:10;5.45;;;4.30;;
26407;SDS011;14583;43.604;1.364;2023-07-29T12:14:36;7.65;;;4.70;;
26407;SDS011;14583;43.604;1.364;2023-07-29T12:17:02;6.40;;;4.30;;
26407;SDS011;14583;43.604;1.364;2023-07-29T12:19:37;8.15;;;4.72;;
26407;SDS011;14583;43.604;1.364;2023-07-29T12:22:04;5.03;;;3.97;;
26407;SDS011;14583;43.604;1.364;2023-07-29T12:24:31;7.68;;;4.45;;
26407;SDS011;14583;43.604;1.364;2023-07-29T12:26:58;6.75;;;4.38;;
26407;SDS011;14583;43.604;1.364;2023-07-29T12:29:24;5.47;;;4.20;;
26407;SDS011;14583;43.604;1.364;2023-07-29T12:32:01;5.63;;;4.10;;
26407;SDS011;14583;43.604;1.364;2023-07-29T12:34:28;6.03;;;4.20;;
26407;SDS011;14583;43.604;1.364;2023-07-29T12:36:55;6.38;;;4.63;;
26407;SDS011;14583;43.604;1.364;2023-07-29T12:39:23;6.63;;;3.95;;
26407;SDS011;14583;43.604;1.364;2023-07-29T12:41:54;8.52;;;4.00;;
26407;SDS011;14583;43.604;1.364;2023-07-29T12:44:22;7.53;;;3.97;;
26407;SDS011;14583;43.604;1.364;2023-07-29T12:46:48;11.65;;;4.15;;
26407;SDS011;14583;43.604;1.364;2023-07-29T12:49:14;4.28;;;3.50;;
26407;SDS011;14583;43.604;1.364;2023-07-29T12:51:40;5.60;;;4.20;;
26407;SDS011;14583;43.604;1.364;2023-07-29T12:54:06;7.50;;;3.97;;
26407;SDS011;14583;43.604;1.364;2023-07-29T12:56:35;9.70;;;4.30;;
26407;SDS011;14583;43.604;1.364;2023-07-29T12:59:01;5.03;;;4.32;;
26407;SDS011;14583;43.604;1.364;2023-07-29T13:01:28;8.05;;;3.95;;
26407;SDS011;14583;43.604;1.364;2023-07-29T13:03:54;4.93;;;3.95;;
26407;SDS011;14583;43.604;1.364;2023-07-29T13:06:21;5.28;;;3.90;;
26407;SDS011;14583;43.604;1.364;2023-07-29T13:08:47;6.03;;;4.30;;
26407;SDS011;14583;43.604;1.364;2023-07-29T13:11:14;8.15;;;4.20;;
26407;SDS011;14583;43.604;1.364;2023-07-29T13:13:40;6.03;;;3.83;;
26407;SDS011;14583;43.604;1.364;2023-07-29T13:16:05;7.63;;;4.10;;
26407;SDS011;14583;43.604;1.364;2023-07-29T13:18:31;5.82;;;3.92;;
26407;SDS011;14583;43.604;1.364;2023-07-29T13:20:58;6.72;;;3.90;;
26407;SDS011;14583;43.604;1.364;2023-07-29T13:23:25;6.05;;;4.32;;
26407;SDS011;14583;43.604;1.364;2023-07-29T13:25:51;5.28;;;3.92;;
26407;SDS011;14583;43.604;1.364;2023-07-29T13:28:17;5.47;;;3.97;;
26407;SDS011;14583;43.604;1.364;2023-07-29T13:30:44;6.20;;;3.85;;
26407;SDS011;14583;43.604;1.364;2023-07-29T13:33:09;5.88;;;4.10;;
26407;SDS011;14583;43.604;1.364;2023-07-29T13:35:35;7.45;;;4.35;;
26407;SDS011;14583;43.604;1.364;2023-07-29T13:38:01;8.02;;;3.65;;
26407;SDS011;14583;43.604;1.364;2023-07-29T13:40:27;5.57;;;4.05;;
26407;SDS011;14583;43.604;1.364;2023-07-29T13:42:53;6.22;;;4.10;;
26407;SDS011;14583;43.604;1.364;2023-07-29T13:45:19;6.43;;;3.95;;
26407;SDS011;14583;43.604;1.364;2023-07-29T13:47:45;5.07;;;4.20;;
26407;SDS011;14583;43.604;1.364;2023-07-29T13:50:11;4.53;;;3.90;;
26407;SDS011;14583;43.604;1.364;2023-07-29T13:52:37;10.90;;;3.97;;
26407;SDS011;14583;43.604;1.364;2023-07-29T13:55:04;11.25;;;4.10;;
26407;SDS011;14583;43.604;1.364;2023-07-29T13:57:31;6.97;;;3.90;;
26407;SDS011;14583;43.604;1.364;2023-07-29T13:59:57;5.53;;;4.25;;
26407;SDS011;14583;43.604;1.364;2023-07-29T14:02:23;5.07;;;3.85;;
26407;SDS011;14583;43.604;1.364;2023-07-29T14:04:48;5.55;;;4.07;;
26407;SDS011;14583;43.604;1.364;2023-07-29T14:07:14;15.35;;;4.25;;
26407;SDS011;14583;43.604;1.364;2023-07-29T14:09:40;6.88;;;3.97;;
26407;SDS011;14583;43.604;1.364;2023-07-29T14:12:08;6.82;;;4.05;;
26407;SDS011;14583;43.604;1.364;2023-07-29T14:14:38;11.98;;;4.35;;
26407;SDS011;14583;43.604;1.364;2023-07-29T14:17:04;6.70;;;4.00;;
26407;SDS011;14583;43.604;1.364;2023-07-29T14:19:33;5.20;;;4.00;;
26407;SDS011;14583;43.604;1.364;2023-07-29T14:21:59;8.93;;;4.25;;
26407;SDS011;14583;43.604;1.364;2023-07-29T14:24:25;7.40;;;4.45;;
26407;SDS011;14583;43.604;1.364;2023-07-29T14:26:52;4.47;;;3.90;;
26407;SDS011;14583;43.604;1.364;2023-07-29T14:29:18;7.00;;;4.47;;
26407;SDS011;14583;43.604;1.364;2023-07-29T14:31:44;6.10;;;4.03;;
26407;SDS011;14583;43.604;1.364;2023-07-29T14:34:09;6.65;;;4.25;;
26407;SDS011;14583;43.604;1.364;2023-07-29T14:36:35;6.28;;;4.40;;
26407;SDS011;14583;43.604;1.364;2023-07-29T14:39:01;6.35;;;4.10;;
26407;SDS011;14583;43.604;1.364;2023-07-29T14:41:27;5.25;;;3.90;;
26407;SDS011;14583;43.604;1.364;2023-07-29T14:43:53;5.28;;;4.50;;
26407;SDS011;14583;43.604;1.364;2023-07-29T14:46:19;11.13;;;4.05;;
26407;SDS011;14583;43.604;1.364;2023-07-29T14:48:44;7.55;;;4.47;;
26407;SDS011;14583;43.604;1.364;2023-07-29T14:51:12;4.72;;;3.88;;
26407;SDS011;14583;43.604;1.364;2023-07-29T14:53:38;5.13;;;3.90;;
26407;SDS011;14583;43.604;1.364;2023-07-29T14:56:03;7.70;;;4.05;;
26407;SDS011;14583;43.604;1.364;2023-07-29T14:58:29;4.75;;;4.15;;
26407;SDS011;14583;43.604;1.364;2023-07-29T15:00:55;6.53;;;3.70;;
26407;SDS011;14583;43.604;1.364;2023-07-29T15:03:21;5.57;;;3.90;;
26407;SDS011;14583;43.604;1.364;2023-07-29T15:05:47;6.43;;;3.88;;